Last 24 Hours

Red Mountain

10 Minute Data | America/Los_Angeles
as of 10/14/19 11:06 AM PDT
Date & Time Temp (°F) Dew Pt (°F) RH (%) Wind Spd (mph) Wind Dir (°) Wind Gust (mph) Wind Gst Dir (°) Daily Max Temp (°F) Daily Min Temp (°F)
10/14/19 - 1100 56.7 38.4 50 5.7 WSW | 247 9.0 W | 261 57.7 48.5
10/14/19 - 1050 55.6 38.1 52 5.6 WSW | 242 10.1 WSW | 253 57.7 48.5
10/14/19 - 1040 55.4 38.7 53 6.6 WSW | 252 11.0 WSW | 246 57.7 48.5
10/14/19 - 1030 55.5 38.8 53 6.6 WSW | 255 10.5 WSW | 249 57.7 48.5
10/14/19 - 1020 55.6 38.8 53 4.8 WSW | 253 9.2 W | 272 57.7 48.5
10/14/19 - 1010 55.5 39.6 55 3.0 SW | 224 6.8 SW | 220 57.7 48.5
10/14/19 - 1000 55.7 38.4 52 1.3 WSW | 249 5.0 SW | 228 57.7 48.5
10/14/19 - 0950 56.6 36.8 47 1.2 WNW | 288 2.8 WNW | 294 57.7 48.5
10/14/19 - 0940 55.3 37.4 51 1.0 WSW | 240 4.4 E | 86 57.6 48.5
10/14/19 - 0930 55.7 36.1 48 0.9 SW | 228 3.3 SW | 229 57.6 48.5
10/14/19 - 0920 56.6 35.7 45 1.7 SE | 143 4.6 ESE | 114 57.6 48.5
10/14/19 - 0910 55.8 34.8 45 2.1 NE | 40 5.0 NNE | 25 57.1 48.5
10/14/19 - 0900 54.4 35.3 48 3.2 NE | 38 5.0 NE | 56 55.7 48.5
10/14/19 - 0850 53.9 35.9 50 3.5 NNE | 31 5.9 NE | 37 54.3 48.5
10/14/19 - 0840 53.4 35.6 51 3.4 NNE | 33 5.9 NE | 45 54.0 48.5
10/14/19 - 0830 53.0 36.4 53 2.7 NNE | 25 5.3 NE | 54 53.5 48.5
10/14/19 - 0820 52.6 36.8 55 1.6 N | 10 4.2 NNE | 12 53.5 48.5
10/14/19 - 0810 51.7 36.6 56 1.5 N | 4 3.3 NNW | 335 53.5 48.5
10/14/19 - 0800 50.9 35.8 56 2.4 NNE | 13 4.6 NE | 38 53.5 48.5
10/14/19 - 0750 50.3 36.3 58 2.7 N | 9 4.2 NNE | 17 53.5 48.5
10/14/19 - 0740 49.9 36.7 60 3.3 N | 9 5.0 N | 10 53.5 48.5
10/14/19 - 0730 49.6 37.7 63 3.6 N | 6 5.3 NNE | 17 53.5 48.5
10/14/19 - 0720 49.3 39.0 67 3.1 N | 5 4.4 N | 10 53.5 48.5
10/14/19 - 0710 49.0 38.7 68 2.5 N | 4 3.7 N | 4 53.5 48.5
10/14/19 - 0700 49.0 39.2 69 1.3 N | 356 3.1 N | 6 53.5 48.5
10/14/19 - 0650 48.8 39.4 70 1.6 N | 350 6.1 NNW | 339 53.5 48.5
10/14/19 - 0640 48.6 38.5 68 2.5 N | 5 3.7 N | 0 53.5 48.5
10/14/19 - 0630 48.7 39.6 70 2.3 N | 7 3.3 N | 4 53.5 48.5
10/14/19 - 0620 48.8 39.9 71 1.9 N | 4 2.6 N | 9 53.5 48.5
10/14/19 - 0610 48.6 40.3 73 2.3 N | 6 3.9 NNE | 17 53.5 48.5
10/14/19 - 0600 48.7 41.0 74 2.2 N | 7 3.3 N | 5 53.5 48.6
10/14/19 - 0550 49.0 41.2 74 2.1 N | 11 3.5 N | 2 53.5 48.7
10/14/19 - 0540 49.3 39.6 69 1.2 N | 8 2.8 N | 10 53.5 49.2
10/14/19 - 0530 49.6 39.0 67 2.0 NNW | 348 4.8 N | 349 53.5 49.4
10/14/19 - 0520 50.6 34.2 53 0.1 NNW | 341 1.8 NNW | 342 53.5 50.1
10/14/19 - 0510 51.3 33.5 50 1.1 SSE | 162 2.2 SSE | 160 53.5 50.7
10/14/19 - 0500 51.6 32.4 48 2.4 SSW | 210 2.8 SW | 223 53.5 50.7
10/14/19 - 0450 51.6 33.3 49 3.1 SW | 231 3.7 SW | 234 53.5 50.7
10/14/19 - 0440 51.6 33.2 49 3.2 SW | 218 4.4 SSW | 213 53.5 50.7
10/14/19 - 0430 51.6 32.8 49 3.7 SSW | 196 4.6 SSW | 210 53.5 50.7
10/14/19 - 0420 51.3 35.1 54 3.6 SSW | 196 4.4 S | 182 53.5 50.7
10/14/19 - 0410 51.2 36.2 56 4.6 S | 171 5.5 S | 171 53.5 50.7
10/14/19 - 0400 50.8 38.4 62 4.3 SSW | 197 5.0 S | 188 53.5 50.7
10/14/19 - 0350 51.1 39.0 63 3.9 SW | 219 4.6 SW | 224 53.5 50.8
10/14/19 - 0340 51.9 34.8 52 3.9 S | 181 5.3 SSE | 155 53.5 50.8
10/14/19 - 0330 51.2 37.2 59 2.5 SSW | 194 5.3 SSE | 156 53.5 50.8
10/14/19 - 0320 51.0 38.7 63 2.8 WSW | 253 3.5 WSW | 258 53.5 50.8
10/14/19 - 0310 51.1 38.4 62 2.8 WSW | 247 3.5 WSW | 243 53.5 51.0
10/14/19 - 0300 51.6 37.6 59 3.5 SSW | 208 5.3 S | 188 53.5 51.2
10/14/19 - 0250 51.9 36.1 55 4.9 SSE | 157 7.0 SE | 142 53.5 51.8
10/14/19 - 0240 52.2 36.1 54 6.0 SSE | 150 9.0 SE | 143 53.5 51.9
10/14/19 - 0230 52.3 37.1 56 6.7 SE | 145 10.3 SE | 145 53.5 51.9
10/14/19 - 0220 52.1 37.8 58 5.9 SE | 139 7.5 SE | 132 53.5 51.9
10/14/19 - 0210 52.4 36.5 55 5.3 SSE | 158 6.6 S | 176 53.5 51.9
10/14/19 - 0200 52.7 34.7 50 7.3 SE | 140 9.6 SE | 127 53.5 51.9
10/14/19 - 0150 52.7 34.7 50 7.9 ESE | 112 11.8 E | 94 53.5 51.9
10/14/19 - 0140 52.7 34.5 50 9.0 ESE | 103 12.5 ESE | 122 53.5 51.9
10/14/19 - 0130 52.4 36.6 55 7.1 E | 90 11.4 ESE | 107 53.5 51.9
10/14/19 - 0120 52.9 38.0 57 5.5 ESE | 109 7.2 E | 99 53.5 52.6
10/14/19 - 0110 52.9 37.8 56 4.6 E | 80 8.8 ESE | 117 53.5 52.6
10/14/19 - 0100 53.5 38.3 56 3.8 ESE | 113 5.0 SE | 124 70.8 51.6
10/14/19 - 0050 53.5 38.2 56 4.4 SE | 134 6.6 SE | 130 70.8 51.6
10/14/19 - 0040 53.6 37.6 55 6.6 SE | 131 8.3 SE | 127 70.8 51.6
10/14/19 - 0030 53.7 41.0 62 7.6 SE | 129 9.2 SE | 135 70.8 51.6
10/14/19 - 0020 53.9 42.8 66 7.3 SE | 134 8.8 SE | 131 70.8 51.6
10/14/19 - 0010 54.2 42.4 64 7.0 SE | 143 8.6 SE | 141 70.8 51.6
10/14/19 - 0000 54.5 41.6 62 6.3 SE | 145 8.6 SE | 141 70.8 51.6
10/13/19 - 2350 55.0 39.7 56 6.1 SSE | 148 9.4 SE | 140 70.8 51.6
10/13/19 - 2340 55.4 37.6 51 6.5 SE | 124 10.5 SE | 146 70.8 51.6
10/13/19 - 2330 55.6 37.1 50 6.3 ESE | 114 8.8 ESE | 116 70.8 51.6
10/13/19 - 2320 55.1 36.7 50 6.0 E | 96 8.8 E | 100 70.8 51.6
10/13/19 - 2310 53.4 35.6 51 6.3 ENE | 60 7.7 NE | 52 70.8 51.6
10/13/19 - 2300 53.3 35.0 50 6.4 NE | 48 8.3 NE | 45 70.8 51.6
10/13/19 - 2250 52.6 36.7 55 3.8 NNE | 20 7.7 NE | 38 70.8 51.6
10/13/19 - 2240 52.4 37.1 56 4.1 NNE | 18 7.7 NE | 35 70.8 51.6
10/13/19 - 2230 52.4 36.2 54 4.4 NNE | 21 7.7 NE | 36 70.8 51.6
10/13/19 - 2220 52.1 36.8 56 5.9 NNE | 26 10.3 NNE | 29 70.8 51.6
10/13/19 - 2210 52.2 36.6 55 8.0 NNE | 30 10.3 NE | 35 70.8 51.6
10/13/19 - 2200 52.0 38.8 61 6.1 NNE | 29 8.8 NE | 36 70.8 51.6
10/13/19 - 2150 51.8 39.2 62 4.7 NNE | 15 8.3 NNE | 24 70.8 51.6
10/13/19 - 2140 52.4 38.3 59 5.7 NNE | 22 8.1 NE | 39 70.8 52.0
10/13/19 - 2130 52.3 38.6 59 6.9 NNE | 27 10.3 NE | 44 70.8 52.1
10/13/19 - 2120 52.5 39.2 60 5.6 NNE | 19 9.2 NNE | 32 70.8 52.2
10/13/19 - 2110 53.4 38.3 56 5.3 NNE | 15 7.7 NNE | 26 70.8 52.5
10/13/19 - 2100 53.2 38.2 57 5.9 NNE | 16 9.0 NE | 39 70.8 52.5
10/13/19 - 2050 52.7 40.2 62 6.5 NNE | 18 9.9 NNE | 26 70.8 52.5
10/13/19 - 2040 52.7 41.6 66 7.3 NNE | 22 10.5 NNE | 22 70.8 52.5
10/13/19 - 2030 53.0 40.2 62 6.6 NNE | 14 9.4 NNE | 17 70.8 52.6
10/13/19 - 2020 52.8 41.6 65 6.7 NNE | 17 10.3 NNE | 26 70.8 52.6
10/13/19 - 2010 53.0 43.0 69 6.6 NNE | 14 9.2 N | 8 70.8 52.7
10/13/19 - 2000 53.6 43.7 69 6.9 N | 10 9.6 N | 8 70.8 53.2
10/13/19 - 1950 53.8 44.0 69 6.8 N | 7 9.2 NNE | 20 70.8 53.6
10/13/19 - 1940 54.3 43.7 67 6.2 N | 6 8.3 NNE | 23 70.8 54.0
10/13/19 - 1930 54.7 43.2 65 6.1 N | 10 8.6 NNE | 17 70.8 54.4
10/13/19 - 1920 55.2 42.9 63 5.6 N | 5 8.1 NNE | 19 70.8 55.1
10/13/19 - 1910 55.5 42.8 62 4.7 N | 5 6.8 NNE | 23 70.8 55.2
10/13/19 - 1900 56.0 42.6 61 4.5 N | 3 6.8 N | 9 70.8 55.8
10/13/19 - 1850 56.2 42.5 60 4.1 N | 6 6.4 N | 0 70.8 56.0
10/13/19 - 1840 57.1 41.5 56 3.4 N | 5 5.3 N | 4 70.8 56.5
10/13/19 - 1830 57.8 41.0 54 4.1 NNW | 346 8.3 NNW | 344 70.8 57.6
10/13/19 - 1820 58.2 41.0 53 4.7 NNW | 336 8.8 NNW | 346 70.8 57.9
10/13/19 - 1810 58.8 42.9 56 2.9 WNW | 301 7.9 NNW | 329 70.8 58.4
10/13/19 - 1800 59.8 42.9 54 3.0 NW | 304 6.1 NNW | 329 70.8 59.0
10/13/19 - 1750 59.4 45.7 60 3.1 W | 260 5.9 WNW | 283 70.8 59.0
10/13/19 - 1740 60.4 45.8 58 3.2 WSW | 250 5.5 W | 264 70.8 59.1
10/13/19 - 1730 60.7 44.9 56 4.6 WSW | 251 7.2 WSW | 239 70.8 59.1
10/13/19 - 1720 61.6 44.2 53 6.0 WSW | 244 10.1 W | 261 70.8 59.1
10/13/19 - 1710 62.0 43.4 50 8.0 WSW | 244 12.1 WSW | 249 70.8 59.1
10/13/19 - 1700 62.7 42.8 48 8.2 WSW | 237 12.3 SW | 231 70.8 59.1
10/13/19 - 1650 63.1 42.0 46 8.9 WSW | 243 12.1 SSW | 202 70.8 59.1
10/13/19 - 1640 63.0 42.3 47 9.4 WSW | 244 13.8 SSW | 206 70.8 59.1
10/13/19 - 1630 63.0 42.9 48 9.6 WSW | 241 13.8 WSW | 239 70.8 59.1
10/13/19 - 1620 63.5 42.5 46 9.8 WSW | 238 14.7 WSW | 258 70.8 59.1
10/13/19 - 1610 64.0 42.0 45 11.7 WSW | 246 16.2 WSW | 239 70.8 59.1
10/13/19 - 1600 63.5 41.9 45 11.2 WSW | 237 17.8 SW | 232 70.8 59.1
10/13/19 - 1550 64.2 40.6 42 12.0 WSW | 239 18.0 WSW | 242 70.8 59.1
10/13/19 - 1540 65.2 38.9 38 10.5 SW | 235 18.0 WSW | 246 70.8 59.1
10/13/19 - 1530 65.1 38.4 37 10.7 SW | 233 16.4 SW | 219 70.8 59.1
10/13/19 - 1520 65.1 38.1 37 11.9 WSW | 239 17.1 SW | 233 70.8 59.1
10/13/19 - 1510 65.7 38.0 36 11.5 WSW | 239 17.8 WSW | 247 70.8 59.1
10/13/19 - 1500 65.4 38.2 37 12.4 WSW | 244 19.5 SW | 222 70.8 59.1
10/13/19 - 1450 65.6 37.6 36 11.8 WSW | 240 18.0 WSW | 254 70.8 59.1
10/13/19 - 1440 65.8 36.0 33 11.1 WSW | 239 20.4 SSW | 205 70.8 59.1
10/13/19 - 1430 66.2 35.1 31 11.2 WSW | 245 17.5 WSW | 247 70.8 59.1
10/13/19 - 1420 65.6 31.9 28 11.0 WSW | 255 17.8 WSW | 248 70.8 59.1
10/13/19 - 1410 67.2 31.9 27 10.5 WSW | 244 18.2 WSW | 237 70.8 59.1
10/13/19 - 1400 66.6 29.7 25 10.6 WSW | 251 17.3 W | 268 70.8 59.1
10/13/19 - 1350 67.7 29.6 24 9.3 WSW | 250 15.3 W | 274 70.8 59.1
10/13/19 - 1340 66.2 29.4 25 8.9 W | 262 16.4 W | 261 70.8 59.1
10/13/19 - 1330 65.9 29.2 25 10.1 WSW | 242 15.8 WSW | 250 70.8 59.1
10/13/19 - 1320 65.9 28.1 24 11.7 W | 259 19.7 WSW | 252 70.8 59.1
10/13/19 - 1310 66.0 26.6 22 13.0 W | 262 20.0 WSW | 246 70.8 59.1
10/13/19 - 1300 66.5 26.3 22 10.6 W | 262 19.7 WSW | 251 70.8 59.1
10/13/19 - 1250 66.4 25.6 21 10.8 WSW | 253 19.1 WSW | 254 70.8 59.1
10/13/19 - 1240 66.5 25.2 21 9.1 WSW | 249 19.1 SW | 235 70.8 59.1
10/13/19 - 1230 65.9 25.5 22 9.2 WSW | 250 15.3 W | 261 70.8 59.1
10/13/19 - 1220 65.6 25.6 22 9.8 WSW | 256 16.2 W | 262 70.8 59.1
10/13/19 - 1210 66.1 25.4 21 8.0 WSW | 247 13.2 WSW | 252 70.8 59.1
10/13/19 - 1200 66.3 24.9 21 9.4 WSW | 244 14.5 WSW | 245 70.8 59.1
10/13/19 - 1150 66.5 24.5 20 6.7 WSW | 242 11.8 WSW | 251 70.8 59.1
10/13/19 - 1140 68.3 20.4 16 7.6 SW | 217 14.7 WSW | 245 70.8 59.1
10/13/19 - 1130 68.9 14.0 12 5.2 S | 173 12.3 S | 184 70.8 59.1
10/13/19 - 1120 68.7 13.7 12 11.0 ESE | 122 17.1 SE | 141 69.9 59.1
10/13/19 - 1110 68.7 13.7 12 10.0 ESE | 117 19.7 SE | 128 69.8 59.1
10/13/19 - 1100 66.8 13.0 12 12.2 ESE | 115 22.4 ESE | 115 68.5 59.1
Max 68.9 45.8 74 13.0 - 22.4 - 70.8 59.1
Avg 56.5 36.7 50 5.9 - 9.4 - - -
Min 48.6 13.0 12 0.1 - 1.8 - 53.5 48.5